createdAt,value
2022-08-22T00:00:17.042Z,8.90
2022-08-22T00:02:43.020Z,8.93
2022-08-22T00:02:58.607Z,7.25
2022-08-22T00:03:08.441Z,8.18
2022-08-22T00:03:17.371Z,10.95
2022-08-22T00:06:02.543Z,7.78
2022-08-22T00:08:35.062Z,11.75
2022-08-22T00:11:08.294Z,13.43
2022-08-22T00:13:47.340Z,6.78
2022-08-22T00:16:29.944Z,7.75
2022-08-22T00:19:05.692Z,8.02
2022-08-22T00:21:40.959Z,9.02
2022-08-22T00:24:23.175Z,10.68
2022-08-22T00:27:04.526Z,13.35
2022-08-22T00:29:44.098Z,9.55
2022-08-22T00:32:21.458Z,8.70
2022-08-22T00:34:55.951Z,9.52
2022-08-22T00:37:29.575Z,8.82
2022-08-22T00:40:05.940Z,9.70
2022-08-22T00:43:13.016Z,10.48
2022-08-22T00:45:55.034Z,9.57
2022-08-22T00:49:16.165Z,10.57
2022-08-22T00:52:26.698Z,16.17
2022-08-22T00:55:25.381Z,17.10
2022-08-22T00:58:24.023Z,12.57
2022-08-22T01:00:55.441Z,12.00
2022-08-22T01:03:49.821Z,13.15
2022-08-22T01:06:26.162Z,12.40
2022-08-22T01:09:02.958Z,16.30
2022-08-22T01:12:12.117Z,16.27
2022-08-22T01:14:45.970Z,14.77
2022-08-22T01:17:41.423Z,23.52
2022-08-22T01:20:30.520Z,21.38
2022-08-22T01:23:30.372Z,19.75
2022-08-22T01:26:40.523Z,21.50
2022-08-22T01:29:39.722Z,18.42
2022-08-22T01:32:50.594Z,25.45
2022-08-22T01:35:38.599Z,20.85
2022-08-22T01:38:27.774Z,18.95
2022-08-22T01:41:17.202Z,22.50
2022-08-22T01:44:09.204Z,25.15
2022-08-22T01:46:48.494Z,28.60
2022-08-22T01:49:20.715Z,23.70
2022-08-22T01:51:55.644Z,23.35
2022-08-22T01:54:32.555Z,27.42
2022-08-22T01:57:04.314Z,24.83
2022-08-22T01:59:42.389Z,23.70
2022-08-22T02:02:36.502Z,23.20
2022-08-22T02:05:10.171Z,28.70
2022-08-22T02:07:49.106Z,21.80
2022-08-22T02:10:23.179Z,22.85
2022-08-22T02:13:01.221Z,23.85
2022-08-22T02:15:45.293Z,24.90
2022-08-22T02:18:19.206Z,22.88
2022-08-22T02:21:00.528Z,17.85
2022-08-22T02:23:37.828Z,19.50
2022-08-22T02:26:09.936Z,21.92
2022-08-22T02:28:57.041Z,19.80
2022-08-22T02:31:38.852Z,21.98
2022-08-22T02:34:22.736Z,18.70
2022-08-22T02:36:58.226Z,21.85
2022-08-22T02:39:36.965Z,32.55
2022-08-22T02:42:16.543Z,32.47
2022-08-22T02:44:55.742Z,31.33
2022-08-22T02:47:31.122Z,29.85
2022-08-22T02:50:05.969Z,30.02
2022-08-22T02:52:51.853Z,34.97
2022-08-22T02:55:41.779Z,34.95
2022-08-22T02:58:19.925Z,32.20
2022-08-22T03:00:51.363Z,33.38
2022-08-22T03:03:26.078Z,32.30
2022-08-22T03:06:01.666Z,35.33
2022-08-22T03:08:33.292Z,33.45
2022-08-22T03:11:19.092Z,36.75
2022-08-22T03:13:57.522Z,38.15
2022-08-22T03:16:30.830Z,41.55
2022-08-22T03:19:05.363Z,40.75
2022-08-22T03:21:38.617Z,36.08
2022-08-22T03:24:13.136Z,41.35
2022-08-22T03:26:48.488Z,44.55
2022-08-22T03:29:21.179Z,38.47
2022-08-22T03:32:14.701Z,47.97
2022-08-22T03:35:00.650Z,43.65
2022-08-22T03:37:40.655Z,47.67
2022-08-22T03:40:24.562Z,47.88
2022-08-22T03:43:13.356Z,50.53
2022-08-22T03:46:27.887Z,52.92
2022-08-22T03:49:26.809Z,50.10
2022-08-22T03:52:08.388Z,52.05
2022-08-22T03:55:05.333Z,49.63
2022-08-22T03:57:55.837Z,53.47
2022-08-22T04:00:55.963Z,53.45
2022-08-22T04:03:59.064Z,52.08
2022-08-22T04:07:00.816Z,52.63
2022-08-22T04:10:14.230Z,53.20
2022-08-22T04:13:11.585Z,58.67
2022-08-22T04:16:13.435Z,54.05
2022-08-22T04:19:14.968Z,54.08
2022-08-22T04:21:54.939Z,60.25
2022-08-22T04:24:52.015Z,52.10
2022-08-22T04:27:25.934Z,49.15
2022-08-22T04:29:58.521Z,53.08
2022-08-22T04:32:34.445Z,50.63
2022-08-22T04:35:07.470Z,54.50
2022-08-22T04:37:40.216Z,50.80
2022-08-22T04:40:13.053Z,49.30
2022-08-22T04:42:44.083Z,57.95
2022-08-22T04:45:17.167Z,50.58
2022-08-22T04:47:54.144Z,50.58
2022-08-22T04:50:26.126Z,49.40
2022-08-22T04:53:11.141Z,49.88
2022-08-22T04:55:50.239Z,52.10
2022-08-22T04:58:35.139Z,53.05
2022-08-22T05:01:11.153Z,55.53
2022-08-22T05:03:48.102Z,50.15
2022-08-22T05:06:19.981Z,52.08
2022-08-22T05:08:53.877Z,48.67
2022-08-22T05:11:24.793Z,57.42
2022-08-22T05:13:58.760Z,51.25
2022-08-22T05:16:35.311Z,58.83
2022-08-22T05:19:12.004Z,52.75
2022-08-22T05:21:44.848Z,65.35
2022-08-22T05:24:18.512Z,61.22
2022-08-22T05:26:50.564Z,55.20
2022-08-22T05:29:25.147Z,64.18
2022-08-22T05:31:57.069Z,54.83
2022-08-22T05:34:32.548Z,57.38
2022-08-22T05:37:08.263Z,51.80
2022-08-22T05:39:39.197Z,56.55
2022-08-22T05:42:15.577Z,53.38
2022-08-22T05:44:44.260Z,53.22
2022-08-22T05:47:23.437Z,55.38
2022-08-22T05:50:00.496Z,58.60
2022-08-22T05:52:58.003Z,54.83
2022-08-22T05:55:30.025Z,53.90
2022-08-22T05:58:16.233Z,59.92
2022-08-22T06:00:48.915Z,54.08
2022-08-22T06:03:20.626Z,55.10
2022-08-22T06:05:53.732Z,58.55
2022-08-22T06:08:26.461Z,51.60
2022-08-22T06:10:57.089Z,52.13
2022-08-22T06:13:32.757Z,55.67
2022-08-22T06:16:09.446Z,56.80
2022-08-22T06:18:42.685Z,49.67
2022-08-22T06:21:14.744Z,58.33
2022-08-22T06:23:46.584Z,64.15
2022-08-22T06:26:20.731Z,63.15
2022-08-22T06:28:55.242Z,53.10
2022-08-22T06:31:27.417Z,62.65
2022-08-22T06:33:59.235Z,58.40
2022-08-22T06:36:32.672Z,54.70
2022-08-22T06:39:08.519Z,53.60
2022-08-22T06:41:40.557Z,53.15
2022-08-22T06:44:17.668Z,60.22
2022-08-22T06:46:47.610Z,62.95
2022-08-22T06:49:17.790Z,58.10
2022-08-22T06:51:51.142Z,71.82
2022-08-22T06:54:24.304Z,60.80
2022-08-22T06:56:56.837Z,62.47
2022-08-22T06:59:28.556Z,61.38
2022-08-22T07:02:05.390Z,58.35
2022-08-22T07:04:34.165Z,63.22
2022-08-22T07:07:04.842Z,72.65
2022-08-22T07:09:37.245Z,58.40
2022-08-22T07:12:14.255Z,62.70
2022-08-22T07:14:45.187Z,63.95
2022-08-22T07:17:19.091Z,74.32
2022-08-22T07:19:56.359Z,68.97
2022-08-22T07:22:28.933Z,66.47
2022-08-22T07:25:05.275Z,63.08
2022-08-22T07:28:05.522Z,72.82
2022-08-22T07:30:43.654Z,61.88
2022-08-22T07:33:28.724Z,58.70
2022-08-22T07:36:01.682Z,59.65
2022-08-22T07:38:42.867Z,56.83
2022-08-22T07:41:15.237Z,60.22
2022-08-22T07:43:47.605Z,60.85
2022-08-22T07:46:28.169Z,63.40
2022-08-22T07:49:09.134Z,67.50
2022-08-22T07:51:43.722Z,59.00
2022-08-22T07:54:16.751Z,67.28
2022-08-22T07:56:51.260Z,61.63
2022-08-22T07:59:22.405Z,55.78
2022-08-22T08:01:54.435Z,76.00
2022-08-22T08:04:26.442Z,58.95
2022-08-22T08:07:03.101Z,57.03
2022-08-22T08:09:34.985Z,67.68
2022-08-22T08:12:06.691Z,57.50
2022-08-22T08:14:38.623Z,61.30
2022-08-22T08:17:12.173Z,67.90
2022-08-22T08:19:42.767Z,64.97
2022-08-22T08:22:17.102Z,59.20
2022-08-22T08:24:48.206Z,58.15
2022-08-22T08:27:42.890Z,60.55
2022-08-22T08:32:48.891Z,55.70
2022-08-22T08:35:21.298Z,51.22
2022-08-22T08:37:52.655Z,62.45
2022-08-22T08:40:48.534Z,63.58
2022-08-22T08:43:34.558Z,63.83
2022-08-22T08:46:28.264Z,60.90
2022-08-22T08:49:35.212Z,62.92
2022-08-22T08:52:48.182Z,59.33
2022-08-22T08:55:34.391Z,60.45
2022-08-22T08:58:18.748Z,63.83
2022-08-22T09:00:53.881Z,55.45
2022-08-22T09:03:38.736Z,55.50
2022-08-22T09:06:30.685Z,60.55
2022-08-22T09:09:14.324Z,54.05
2022-08-22T09:12:01.782Z,59.40
2022-08-22T09:14:57.792Z,56.53
2022-08-22T09:18:10.820Z,62.85
2022-08-22T09:21:01.164Z,61.67
2022-08-22T09:24:02.065Z,56.95
2022-08-22T09:26:38.953Z,69.78
2022-08-22T09:29:29.073Z,61.58
2022-08-22T09:32:13.178Z,61.78
2022-08-22T09:35:00.307Z,63.43
2022-08-22T09:37:40.555Z,61.33
2022-08-22T09:40:18.894Z,64.13
2022-08-22T09:42:57.043Z,59.05
2022-08-22T09:45:49.934Z,59.20
2022-08-22T09:48:39.000Z,53.05
2022-08-22T09:51:31.437Z,61.97
2022-08-22T09:54:20.326Z,52.80
2022-08-22T09:57:17.119Z,51.30
2022-08-22T10:00:31.054Z,52.33
2022-08-22T10:03:11.328Z,49.72
2022-08-22T10:05:48.240Z,50.47
2022-08-22T10:08:32.636Z,39.78
2022-08-22T10:11:14.421Z,41.13
2022-08-22T10:13:57.647Z,35.70
2022-08-22T10:17:03.076Z,39.22
2022-08-22T10:19:46.859Z,41.75
2022-08-22T10:22:30.321Z,44.42
2022-08-22T10:25:15.250Z,48.83
2022-08-22T10:27:57.544Z,46.25
2022-08-22T10:30:32.117Z,52.05
2022-08-22T10:33:06.283Z,44.97
2022-08-22T10:35:45.821Z,37.47
2022-08-22T10:38:25.075Z,30.25
2022-08-22T10:41:00.764Z,38.10
2022-08-22T10:43:39.128Z,33.35
2022-08-22T10:46:15.425Z,31.00
2022-08-22T10:48:54.044Z,39.50
2022-08-22T10:51:55.369Z,29.05
2022-08-22T10:54:44.720Z,24.70
2022-08-22T10:57:23.980Z,20.77
2022-08-22T10:59:59.001Z,16.40
2022-08-22T11:02:47.801Z,19.83
2022-08-22T11:05:37.618Z,21.23
2022-08-22T11:08:30.296Z,18.45
2022-08-22T11:11:15.049Z,16.63
2022-08-22T11:13:58.574Z,19.90
2022-08-22T11:16:46.091Z,15.75
2022-08-22T11:19:40.104Z,15.23
2022-08-22T11:22:16.351Z,25.98
2022-08-22T11:25:11.991Z,16.63
2022-08-22T11:27:50.989Z,21.92
2022-08-22T11:30:22.925Z,18.85
2022-08-22T11:33:46.445Z,21.88
2022-08-22T11:36:33.699Z,17.67
2022-08-22T11:39:13.774Z,14.32
2022-08-22T11:41:56.461Z,11.65
2022-08-22T11:44:31.401Z,13.35
2022-08-22T11:47:05.706Z,12.70
2022-08-22T11:50:29.413Z,10.18
2022-08-22T11:53:20.475Z,12.10
2022-08-22T11:55:59.263Z,20.05
2022-08-22T11:58:40.179Z,10.85
2022-08-22T12:01:18.381Z,11.13
2022-08-22T12:04:19.492Z,13.13
2022-08-22T12:06:56.133Z,9.50
2022-08-22T12:09:44.979Z,11.73
2022-08-22T12:12:44.277Z,10.93
2022-08-22T12:15:21.561Z,9.68
2022-08-22T12:18:21.423Z,10.98
2022-08-22T12:21:14.486Z,20.88
2022-08-22T12:23:57.754Z,5.47
2022-08-22T12:26:48.746Z,7.82
2022-08-22T12:29:39.716Z,14.45
2022-08-22T12:32:57.215Z,15.38
2022-08-22T12:35:39.699Z,8.52
2022-08-22T12:38:29.179Z,6.03
2022-08-22T12:41:28.295Z,12.90
2022-08-22T12:44:27.764Z,12.70
2022-08-22T12:47:36.445Z,15.95
2022-08-22T12:50:28.163Z,9.18
2022-08-22T12:53:32.684Z,21.23
2022-08-22T12:56:10.355Z,11.07
2022-08-22T12:59:01.172Z,12.52
2022-08-22T13:01:43.200Z,8.02
2022-08-22T13:04:33.332Z,9.13
2022-08-22T13:07:27.293Z,15.15
2022-08-22T13:10:06.661Z,11.52
2022-08-22T13:12:44.480Z,16.52
2022-08-22T13:15:38.362Z,18.10
2022-08-22T13:18:32.410Z,21.67
2022-08-22T13:21:14.503Z,18.27
2022-08-22T13:23:50.800Z,15.75
2022-08-22T13:26:33.973Z,10.52
2022-08-22T13:29:25.310Z,13.07
2022-08-22T13:32:01.953Z,8.85
2022-08-22T13:34:40.058Z,6.90
2022-08-22T13:37:13.589Z,9.45
2022-08-22T13:39:49.124Z,9.55
2022-08-22T13:42:30.383Z,10.52
2022-08-22T13:45:06.181Z,9.98
2022-08-22T13:47:39.532Z,10.93
2022-08-22T13:50:14.000Z,14.63
2022-08-22T13:52:52.329Z,12.25
2022-08-22T13:55:29.539Z,11.73
2022-08-22T13:58:07.537Z,13.80
2022-08-22T14:01:17.653Z,11.45
2022-08-22T14:03:49.705Z,20.73
2022-08-22T14:06:43.966Z,7.95
2022-08-22T14:12:24.478Z,10.18
2022-08-22T14:14:58.755Z,10.10
2022-08-22T14:17:42.516Z,12.05
2022-08-22T14:23:09.333Z,10.85
2022-08-22T14:25:42.858Z,12.55
2022-08-22T14:28:33.313Z,9.07
2022-08-22T14:31:22.196Z,8.52
2022-08-22T14:33:54.652Z,14.90
2022-08-22T14:36:27.083Z,14.35
2022-08-22T14:39:00.608Z,14.82
2022-08-22T14:41:52.448Z,10.63
2022-08-22T14:44:32.201Z,11.82
2022-08-22T14:47:43.336Z,9.18
2022-08-22T14:50:47.507Z,8.95
2022-08-22T14:53:40.680Z,11.25
2022-08-22T14:56:13.017Z,19.77
2022-08-22T14:58:51.578Z,15.20
2022-08-22T15:01:29.726Z,11.98
2022-08-22T15:06:59.776Z,21.00
2022-08-22T15:09:35.222Z,9.60
2022-08-22T15:12:06.198Z,11.45
2022-08-22T15:14:52.354Z,18.42
2022-08-22T15:17:44.217Z,13.23
2022-08-22T15:20:28.759Z,16.38
2022-08-22T15:23:00.597Z,13.60
2022-08-22T15:25:32.421Z,17.35
2022-08-22T15:28:07.495Z,9.35
2022-08-22T15:30:54.139Z,14.82
2022-08-22T15:33:27.639Z,11.48
2022-08-22T15:36:11.029Z,11.90
2022-08-22T15:38:47.909Z,12.25
2022-08-22T15:41:36.015Z,9.80
2022-08-22T15:44:33.213Z,9.20
2022-08-22T15:47:11.971Z,7.68
2022-08-22T15:49:59.265Z,8.63
2022-08-22T15:52:31.168Z,14.02
2022-08-22T15:55:34.482Z,7.28
2022-08-22T15:58:21.446Z,11.82
2022-08-22T16:01:19.136Z,12.20
2022-08-22T16:03:59.096Z,7.07
2022-08-22T16:07:01.962Z,9.00
2022-08-22T16:09:38.328Z,10.00
2022-08-22T16:12:13.390Z,9.87
2022-08-22T16:14:50.046Z,10.07
2022-08-22T16:17:44.919Z,11.80
2022-08-22T16:20:57.856Z,7.15
2022-08-22T16:23:28.419Z,12.68
2022-08-22T16:26:21.554Z,9.20
2022-08-22T16:28:58.515Z,8.65
2022-08-22T16:31:35.661Z,5.57
2022-08-22T16:34:25.097Z,15.38
2022-08-22T16:37:36.088Z,11.10
2022-08-22T16:40:15.598Z,9.18
2022-08-22T16:42:47.796Z,11.95
2022-08-22T16:45:19.786Z,7.65
2022-08-22T16:48:05.298Z,13.23
2022-08-22T16:50:37.675Z,6.68
2022-08-22T16:53:12.400Z,11.52
2022-08-22T16:55:48.782Z,16.00
2022-08-22T16:59:00.862Z,12.68
2022-08-22T17:01:47.316Z,6.10
2022-08-22T17:04:39.746Z,11.45
2022-08-22T17:07:50.748Z,10.70
2022-08-22T17:10:35.164Z,9.32
2022-08-22T17:13:20.314Z,13.57
2022-08-22T17:16:13.705Z,8.80
2022-08-22T17:19:14.072Z,10.63
2022-08-22T17:21:51.773Z,15.50
2022-08-22T17:24:31.946Z,14.38
2022-08-22T17:27:07.909Z,11.52
2022-08-22T17:29:46.400Z,6.13
2022-08-22T17:32:21.607Z,11.45
2022-08-22T17:35:17.649Z,8.25
2022-08-22T17:40:48.759Z,7.22
2022-08-22T17:43:36.209Z,5.38
2022-08-22T17:46:38.563Z,10.20
2022-08-22T17:49:38.120Z,10.50
2022-08-22T17:52:11.842Z,11.20
2022-08-22T17:54:47.029Z,13.35
2022-08-22T17:57:41.276Z,11.98
2022-08-22T18:00:18.937Z,11.95
2022-08-22T18:02:58.862Z,20.38
2022-08-22T18:05:32.333Z,8.35
2022-08-22T18:11:18.690Z,8.07
2022-08-22T18:17:14.738Z,7.80
2022-08-22T18:23:21.760Z,7.82
2022-08-22T18:26:30.196Z,8.07
2022-08-22T18:29:54.054Z,14.25
2022-08-22T18:39:10.586Z,7.78
2022-08-22T18:42:03.984Z,11.52
2022-08-22T18:53:37.234Z,11.10
2022-08-22T19:11:54.111Z,7.25
2022-08-22T19:18:47.957Z,11.43
2022-08-22T19:25:54.287Z,10.65
2022-08-22T19:44:31.123Z,14.23
2022-08-22T19:54:23.064Z,14.15
2022-08-22T20:05:31.518Z,9.13
2022-08-22T20:53:10.011Z,16.15
2022-08-22T20:55:47.273Z,14.95
2022-08-22T21:02:22.482Z,13.77
2022-08-22T21:09:20.226Z,22.23
2022-08-22T21:11:59.828Z,16.08
2022-08-22T21:14:46.482Z,16.65
2022-08-22T21:17:34.328Z,16.35
2022-08-22T21:26:30.592Z,13.05
2022-08-22T21:29:33.793Z,20.80
2022-08-22T21:32:20.769Z,20.15
2022-08-22T21:37:54.126Z,18.27
2022-08-22T21:40:44.616Z,16.92
2022-08-22T21:43:30.228Z,13.65
2022-08-22T21:45:59.693Z,18.52
2022-08-22T21:48:34.262Z,16.92
2022-08-22T21:51:58.338Z,15.43
2022-08-22T21:54:49.475Z,15.30
2022-08-22T21:57:39.155Z,26.73
2022-08-22T22:00:33.480Z,17.42
2022-08-22T22:03:08.215Z,16.48
2022-08-22T22:05:39.612Z,17.83
2022-08-22T22:08:14.105Z,22.45
2022-08-22T22:10:45.938Z,18.77
2022-08-22T22:13:15.968Z,20.35
2022-08-22T22:15:54.127Z,21.15
2022-08-22T22:18:24.805Z,17.95
2022-08-22T22:20:57.596Z,22.27
2022-08-22T22:23:29.745Z,18.38
2022-08-22T22:26:02.602Z,23.83
2022-08-22T22:28:33.511Z,22.77
2022-08-22T22:31:07.523Z,27.45
2022-08-22T22:33:43.414Z,22.17
2022-08-22T22:36:15.659Z,23.70
2022-08-22T22:38:46.334Z,25.02
2022-08-22T22:41:15.411Z,25.80
2022-08-22T22:43:46.198Z,26.02
2022-08-22T22:46:18.490Z,24.35
2022-08-22T22:48:53.891Z,29.05
2022-08-22T22:51:22.744Z,23.98
2022-08-22T22:53:53.966Z,28.38
2022-08-22T22:56:24.749Z,25.17
2022-08-22T22:59:00.946Z,26.17
2022-08-22T23:02:01.973Z,20.80
2022-08-22T23:04:37.080Z,25.92
2022-08-22T23:07:08.976Z,24.15
2022-08-22T23:09:38.628Z,28.88
2022-08-22T23:12:18.083Z,31.25
2022-08-22T23:14:51.307Z,26.23
2022-08-22T23:17:27.640Z,30.58
2022-08-22T23:19:58.855Z,35.80
2022-08-22T23:22:35.025Z,37.95
2022-08-22T23:25:07.199Z,32.05
2022-08-22T23:27:35.902Z,34.42
2022-08-22T23:30:13.186Z,28.85
2022-08-22T23:32:48.811Z,39.55
2022-08-22T23:35:17.681Z,35.75
2022-08-22T23:37:48.741Z,28.92
2022-08-22T23:40:17.502Z,33.22
2022-08-22T23:42:48.678Z,38.75
2022-08-22T23:45:24.709Z,39.78
2022-08-22T23:47:56.201Z,31.17
2022-08-22T23:50:24.924Z,34.53
2022-08-22T23:52:55.958Z,34.10
2022-08-22T23:55:26.714Z,28.95
2022-08-22T23:57:58.632Z,33.72
